RJFC(METAR)
12/04 19:00
RJFC 041000Z 03018KT 9999 RA FEW010 BKN015 BKN020 18/15 Q1020 RMK
A3013=
戻る
トップページへ戻る
IMOC Co,.Ltd.